Time;durP1;ratioP1;P1;durP2;ratioP2;P2;SDS_P1;SDS_P2;PMS_P1;PMS_P2;Temp;Humidity;BMP_temperature;BMP_pressure;BME280_temperature;BME280_humidity;BME280_pressure;Samples;Min_cycle;Max_cycle;Signal;HPM_P1;HPM_P2
2023/08/26 00:01:50;;;;;;;23.27;17.92;;;;;;;16.25;100.00;100878.97;4915234;29;20042;-61
2023/08/26 00:04:15;;;;;;;19.98;17.77;;;;;;;16.22;100.00;100877.28;4900630;29;20043;-60
2023/08/26 00:06:41;;;;;;;20.73;18.20;;;;;;;16.30;100.00;100876.16;4886778;29;20115;-60
2023/08/26 00:09:06;;;;;;;20.05;17.92;;;;;;;16.31;100.00;100872.59;4921648;29;20027;-61
2023/08/26 00:11:32;;;;;;;21.55;19.45;;;;;;;16.34;100.00;100883.06;4898988;29;20771;-61
2023/08/26 00:13:57;;;;;;;23.20;19.42;;;;;;;16.29;100.00;100877.91;4883713;29;20040;-61
2023/08/26 00:16:22;;;;;;;21.45;19.25;;;;;;;16.21;100.00;100880.84;4899281;29;20059;-61
2023/08/26 00:18:49;;;;;;;20.05;17.92;;;;;;;16.16;100.00;100881.91;4903951;29;20506;-61
2023/08/26 00:21:16;;;;;;;19.27;17.17;;;;;;;16.05;100.00;100887.59;4899519;29;20035;-61
2023/08/26 00:23:41;;;;;;;20.17;17.45;;;;;;;15.99;100.00;100893.94;4888881;29;20048;-61
2023/08/26 00:26:09;;;;;;;18.42;16.58;;;;;;;15.94;100.00;100895.84;4898202;29;20049;-61
2023/08/26 00:28:34;;;;;;;20.10;17.98;;;;;;;15.88;100.00;100896.06;4917379;29;20039;-61
2023/08/26 00:31:00;;;;;;;19.20;17.25;;;;;;;15.87;100.00;100895.19;4899670;29;20043;-61
2023/08/26 00:33:44;;;;;;;17.50;15.02;;;;;;;15.84;100.00;100895.28;4899375;29;20042;-61
2023/08/26 00:36:10;;;;;;;18.00;14.52;;;;;;;15.70;100.00;100898.38;4921720;29;20039;-61
2023/08/26 00:38:35;;;;;;;17.45;14.45;;;;;;;15.61;100.00;100896.00;4934901;29;20031;-60
2023/08/26 00:41:01;;;;;;;16.58;14.88;;;;;;;15.56;100.00;100898.78;4901689;29;20036;-60
2023/08/26 00:43:27;;;;;;;15.88;12.90;;;;;;;15.44;100.00;100898.31;4917877;29;20039;-61
2023/08/26 00:45:53;;;;;;;12.48;10.90;;;;;;;15.38;99.62;100900.22;4930173;29;20023;-61
2023/08/26 00:48:19;;;;;;;13.05;10.40;;;;;;;15.32;99.87;100900.41;4906569;29;20050;-60
2023/08/26 00:50:47;;;;;;;14.48;9.63;;;;;;;15.29;99.30;100902.31;4906365;29;20039;-61
2023/08/26 00:53:14;;;;;;;15.63;10.88;;;;;;;15.23;99.88;100892.78;4922121;29;20476;-61
2023/08/26 00:55:43;;;;;;;12.13;9.50;;;;;;;15.11;99.40;100894.00;4909642;29;20032;-62
2023/08/26 00:58:10;;;;;;;16.85;10.45;;;;;;;15.10;99.99;100905.50;4918719;29;20028;-62
2023/08/26 01:00:36;;;;;;;11.82;9.65;;;;;;;15.05;100.00;100895.06;4907080;29;20038;-61
2023/08/26 01:03:08;;;;;;;12.40;8.88;;;;;;;14.98;99.81;100897.94;4911192;29;20024;-62
2023/08/26 01:05:36;;;;;;;11.95;8.27;;;;;;;14.98;100.00;100903.22;4905762;29;20510;-62
2023/08/26 01:08:04;;;;;;;12.05;7.90;;;;;;;14.92;100.00;100903.38;4898612;29;20040;-61
2023/08/26 01:10:58;;;;;;;11.77;7.82;;;;;;;14.94;100.00;100907.72;4929658;29;20060;-61
2023/08/26 01:13:40;;;;;;;13.80;7.53;;;;;;;14.85;99.97;100906.19;4921560;29;20526;-62
2023/08/26 01:16:08;;;;;;;11.80;7.45;;;;;;;14.71;100.00;100910.97;4940446;29;20164;-62
2023/08/26 01:18:34;;;;;;;11.55;7.47;;;;;;;14.69;100.00;100907.53;4926490;29;20038;-62
2023/08/26 01:21:00;;;;;;;16.80;6.82;;;;;;;14.52;99.87;100913.22;4909531;29;20066;-62
2023/08/26 01:23:56;;;;;;;13.00;6.72;;;;;;;14.67;100.00;100914.66;4907679;29;20070;-62
2023/08/26 01:26:22;;;;;;;10.38;6.05;;;;;;;14.46;99.46;100906.34;4897417;29;20138;-62
2023/08/26 01:28:47;;;;;;;8.15;5.00;;;;;;;14.41;99.03;100912.66;4903057;29;20030;-62
2023/08/26 01:31:13;;;;;;;10.40;5.05;;;;;;;14.30;98.52;100915.59;4888195;29;20027;-62
2023/08/26 01:33:58;;;;;;;10.82;4.97;;;;;;;14.37;99.73;100919.78;4919446;29;20472;-62
2023/08/26 01:36:27;;;;;;;10.10;5.25;;;;;;;14.25;98.90;100920.09;4916711;29;20034;-62
2023/08/26 01:38:56;;;;;;;8.98;4.43;;;;;;;14.12;98.48;100912.53;4919956;29;20030;-62
2023/08/26 01:41:22;;;;;;;8.35;4.57;;;;;;;14.15;98.38;100911.56;4932757;29;20062;-60
2023/08/26 01:43:48;;;;;;;8.63;4.25;;;;;;;14.02;98.23;100913.63;4924698;29;20075;-61
2023/08/26 01:46:18;;;;;;;7.63;4.47;;;;;;;13.94;98.57;100919.09;4881791;29;20036;-61
2023/08/26 01:48:43;;;;;;;8.90;4.47;;;;;;;13.91;99.24;100910.44;4887917;29;20056;-61
2023/08/26 01:51:12;;;;;;;8.52;4.70;;;;;;;13.82;98.97;100916.75;4922473;29;20443;-61
2023/08/26 01:53:38;;;;;;;8.57;4.40;;;;;;;13.86;98.71;100913.16;4903144;29;20130;-60
2023/08/26 01:56:06;;;;;;;7.97;4.25;;;;;;;13.76;99.11;100915.13;4911130;29;20464;-60
2023/08/26 01:58:31;;;;;;;8.73;3.97;;;;;;;13.62;99.24;100912.84;4917840;29;20047;-60
2023/08/26 02:01:03;;;;;;;7.03;3.88;;;;;;;13.60;100.00;100916.41;4920925;29;20043;-60
2023/08/26 02:03:29;;;;;;;7.47;3.65;;;;;;;13.56;99.70;100917.38;4903555;29;20337;-61
2023/08/26 02:05:54;;;;;;;11.73;4.60;;;;;;;13.54;99.67;100914.78;4903542;29;20031;-60
2023/08/26 02:08:22;;;;;;;10.93;4.10;;;;;;;13.49;99.44;100912.25;4904273;29;20138;-61
2023/08/26 02:10:56;;;;;;;9.80;4.38;;;;;;;13.43;100.00;100922.94;4930102;29;20027;-60
2023/08/26 02:13:22;;;;;;;7.70;3.85;;;;;;;13.37;100.00;100923.06;4926504;29;20051;-61
2023/08/26 02:15:48;;;;;;;10.55;4.57;;;;;;;13.30;100.00;100911.78;4921507;29;20031;-61
2023/08/26 02:18:13;;;;;;;6.82;3.88;;;;;;;13.26;100.00;100910.13;4913400;29;20484;-62
2023/08/26 02:20:42;;;;;;;9.48;4.38;;;;;;;13.17;100.00;100916.44;4900563;29;20397;-61
2023/08/26 02:23:09;;;;;;;10.52;4.43;;;;;;;13.18;100.00;100912.91;4928741;29;20114;-61
2023/08/26 02:25:35;;;;;;;8.95;4.32;;;;;;;13.09;100.00;100914.88;4927079;29;20036;-61
2023/08/26 02:28:00;;;;;;;8.80;4.22;;;;;;;13.11;100.00;100905.19;4909448;29;20039;-60
2023/08/26 02:30:25;;;;;;;7.45;3.95;;;;;;;13.08;100.00;100908.72;4905788;29;20035;-61
2023/08/26 02:32:51;;;;;;;8.13;4.15;;;;;;;13.03;100.00;100907.97;4924058;29;20028;-61
2023/08/26 02:35:16;;;;;;;7.28;3.83;;;;;;;12.88;100.00;100898.63;4895092;29;20035;-61
2023/08/26 02:37:42;;;;;;;6.28;3.80;;;;;;;12.88;100.00;100903.03;4906295;29;20403;-61
2023/08/26 02:40:09;;;;;;;9.48;3.95;;;;;;;12.85;100.00;100906.56;4888665;29;20038;-61
2023/08/26 02:42:34;;;;;;;7.40;3.95;;;;;;;12.83;100.00;100888.19;4887038;29;20041;-61
2023/08/26 02:45:00;;;;;;;10.35;4.60;;;;;;;12.78;100.00;100900.56;4907724;29;20477;-61
2023/08/26 02:47:25;;;;;;;6.47;3.78;;;;;;;12.80;100.00;100895.28;4936354;29;20146;-61
2023/08/26 02:49:51;;;;;;;11.23;4.07;;;;;;;12.71;100.00;100900.72;4888579;29;20118;-61
2023/08/26 02:52:16;;;;;;;8.38;4.18;;;;;;;12.75;100.00;100900.63;4896206;29;20481;-61
2023/08/26 02:54:42;;;;;;;9.68;4.10;;;;;;;12.68;100.00;100903.41;4916113;29;20488;-60
2023/08/26 02:57:07;;;;;;;9.60;4.13;;;;;;;12.63;100.00;100901.75;4902481;29;20083;-61
2023/08/26 02:59:33;;;;;;;9.45;4.20;;;;;;;12.51;100.00;100903.75;4907489;29;20037;-61
2023/08/26 03:02:06;;;;;;;7.82;4.05;;;;;;;12.55;100.00;100897.53;4880393;29;20176;-61
2023/08/26 03:04:32;;;;;;;7.75;4.40;;;;;;;12.52;100.00;100905.47;4873526;29;20040;-62
2023/08/26 03:06:58;;;;;;;7.68;3.80;;;;;;;12.50;100.00;100900.25;4906573;29;20032;-62
2023/08/26 03:09:25;;;;;;;10.18;4.20;;;;;;;12.40;100.00;100906.59;4906593;29;20035;-62
2023/08/26 03:11:51;;;;;;;11.18;4.15;;;;;;;12.39;100.00;100904.84;4881549;29;20353;-61
2023/08/26 03:14:16;;;;;;;7.57;3.60;;;;;;;12.40;100.00;100910.06;4904622;29;20167;-60
2023/08/26 03:16:42;;;;;;;8.13;3.95;;;;;;;12.34;100.00;100912.81;4888225;29;20396;-61
2023/08/26 03:19:07;;;;;;;8.23;3.67;;;;;;;12.31;100.00;100912.84;4891012;29;20485;-60
2023/08/26 03:21:33;;;;;;;15.90;4.80;;;;;;;12.27;100.00;100916.44;4879975;29;20044;-61
2023/08/26 03:23:58;;;;;;;7.82;3.45;;;;;;;12.29;100.00;100917.28;4897182;29;20056;-61
2023/08/26 03:26:25;;;;;;;8.98;4.13;;;;;;;12.19;100.00;100924.44;4914514;29;20048;-61
2023/08/26 03:28:50;;;;;;;7.93;3.85;;;;;;;12.22;100.00;100919.13;4886671;29;20036;-61
2023/08/26 03:31:15;;;;;;;7.78;3.30;;;;;;;12.25;100.00;100920.84;4883614;29;20397;-61
2023/08/26 03:33:41;;;;;;;7.75;3.40;;;;;;;12.16;100.00;100921.88;4874003;29;20036;-61
2023/08/26 03:36:07;;;;;;;7.32;3.72;;;;;;;12.15;100.00;100921.91;4893958;29;20032;-61
2023/08/26 03:38:34;;;;;;;9.68;4.00;;;;;;;12.07;100.00;100928.16;4884097;29;20042;-61
2023/08/26 03:41:06;;;;;;;6.68;3.30;;;;;;;12.11;100.00;100921.97;4920941;29;20026;-60
2023/08/26 03:43:32;;;;;;;9.77;3.63;;;;;;;12.22;100.00;100923.53;4892757;29;20043;-61
2023/08/26 03:45:59;;;;;;;8.25;3.85;;;;;;;12.17;100.00;100931.50;4912512;29;20469;-61
2023/08/26 03:48:25;;;;;;;8.90;4.13;;;;;;;12.05;100.00;100929.94;4888879;29;20043;-62
2023/08/26 03:51:13;;;;;;;10.38;3.78;;;;;;;12.06;100.00;100934.28;4891450;29;20028;-61
2023/08/26 03:53:45;;;;;;;7.25;3.80;;;;;;;12.03;100.00;100926.47;4910094;29;20496;-61
2023/08/26 03:56:13;;;;;;;7.93;3.72;;;;;;;12.00;100.00;100929.16;4910347;29;20056;-61
2023/08/26 03:58:42;;;;;;;5.78;3.33;;;;;;;12.03;100.00;100921.22;4897437;29;20421;-61
2023/08/26 04:01:07;;;;;;;8.48;3.80;;;;;;;11.96;100.00;100923.06;4917341;29;20044;-61
2023/08/26 04:03:33;;;;;;;9.23;4.20;;;;;;;11.90;100.00;100930.16;4885639;29;20039;-61
2023/08/26 04:06:03;;;;;;;10.35;4.28;;;;;;;11.83;100.00;100934.63;4882381;29;20510;-61
2023/08/26 04:08:33;;;;;;;7.53;3.43;;;;;;;11.90;100.00;100935.41;4899648;29;20020;-62
2023/08/26 04:11:00;;;;;;;4.25;1.67;;;;;;;11.93;100.00;100932.72;4879454;29;20095;-62
2023/08/26 04:13:28;;;;;;;6.93;3.80;;;;;;;11.74;100.00;100938.25;4913337;29;20068;-61
2023/08/26 04:15:57;;;;;;;9.80;3.83;;;;;;;11.75;100.00;100937.38;4900003;29;20045;-62
2023/08/26 04:18:23;;;;;;;7.47;3.33;;;;;;;11.70;100.00;100941.81;4911018;29;20071;-62
2023/08/26 04:20:49;;;;;;;7.78;3.80;;;;;;;11.75;100.00;100940.00;4905082;29;20369;-62
2023/08/26 04:23:15;;;;;;;7.93;4.20;;;;;;;11.67;100.00;100930.50;4894354;29;20075;-62
2023/08/26 04:25:42;;;;;;;8.98;4.18;;;;;;;11.64;100.00;100947.16;4884742;29;20051;-62
2023/08/26 04:28:08;;;;;;;7.00;4.13;;;;;;;11.60;100.00;100940.22;4911061;29;20042;-61
2023/08/26 04:30:36;;;;;;;7.55;4.53;;;;;;;11.57;100.00;100945.53;4899699;29;20035;-62
2023/08/26 04:33:03;;;;;;;10.15;4.35;;;;;;;11.55;100.00;100942.03;4902879;29;20371;-62
2023/08/26 04:35:31;;;;;;;8.05;4.25;;;;;;;11.50;100.00;100954.38;4882027;29;20119;-61
2023/08/26 04:37:57;;;;;;;9.27;4.85;;;;;;;11.48;100.00;100951.78;4917575;29;20027;-62
2023/08/26 04:40:25;;;;;;;6.82;4.25;;;;;;;11.44;100.00;100950.06;4914566;29;20036;-62
2023/08/26 04:42:51;;;;;;;10.90;4.63;;;;;;;11.41;100.00;100950.97;4915805;29;20032;-61
2023/08/26 04:45:17;;;;;;;7.30;4.18;;;;;;;11.35;100.00;100950.19;4916988;29;20446;-61
2023/08/26 04:47:43;;;;;;;8.68;4.60;;;;;;;11.34;100.00;100958.97;4887540;29;20740;-60
2023/08/26 04:50:09;;;;;;;6.75;4.25;;;;;;;11.35;100.00;100956.31;4881207;29;20039;-60
2023/08/26 04:52:37;;;;;;;7.78;4.60;;;;;;;11.39;100.00;100960.63;4896174;29;20033;-60
2023/08/26 04:55:04;;;;;;;9.10;4.55;;;;;;;11.43;100.00;100970.22;4882673;29;20184;-60
2023/08/26 04:57:29;;;;;;;8.63;4.38;;;;;;;11.38;100.00;100964.13;4931274;29;20039;-61
2023/08/26 04:59:55;;;;;;;6.63;4.55;;;;;;;11.45;100.00;100978.06;4883738;29;20044;-60
2023/08/26 05:02:20;;;;;;;8.85;4.18;;;;;;;11.45;100.00;100980.69;4896977;29;20126;-61
2023/08/26 05:04:46;;;;;;;7.95;4.80;;;;;;;11.46;100.00;100971.03;4912653;29;20032;-60
2023/08/26 05:07:13;;;;;;;7.85;3.90;;;;;;;11.43;100.00;100975.44;4897415;29;20039;-60
2023/08/26 05:09:38;;;;;;;6.30;4.10;;;;;;;11.44;100.00;100979.78;4914241;29;20023;-60
2023/08/26 05:12:05;;;;;;;7.68;4.38;;;;;;;11.54;100.00;100982.31;4879843;29;20040;-61
2023/08/26 05:14:31;;;;;;;10.48;4.45;;;;;;;11.52;100.00;100981.44;4890296;29;20040;-62
2023/08/26 05:16:58;;;;;;;6.10;3.72;;;;;;;11.65;100.00;100984.78;4883079;29;20158;-61
2023/08/26 05:19:23;;;;;;;5.63;3.80;;;;;;;11.70;100.00;100986.44;4912876;29;20044;-61
2023/08/26 05:21:49;;;;;;;5.55;3.55;;;;;;;11.72;100.00;100989.03;4900116;29;20031;-61
2023/08/26 05:24:14;;;;;;;10.13;4.35;;;;;;;11.77;100.00;100995.97;4880117;29;20063;-61
2023/08/26 05:26:43;;;;;;;9.35;3.85;;;;;;;11.79;100.00;100999.47;4912469;29;20110;-62
2023/08/26 05:29:09;;;;;;;8.27;4.00;;;;;;;11.88;100.00;100989.69;4885570;29;20516;-61
2023/08/26 05:31:35;;;;;;;7.63;3.95;;;;;;;11.95;100.00;100996.63;4915617;29;20039;-61
2023/08/26 05:34:01;;;;;;;10.80;4.05;;;;;;;12.04;100.00;100993.88;4905814;29;20103;-62
2023/08/26 05:36:26;;;;;;;8.57;3.80;;;;;;;12.15;100.00;100998.06;4888149;29;20377;-61
2023/08/26 05:38:52;;;;;;;7.00;3.60;;;;;;;12.18;100.00;100988.38;4902960;29;20042;-60
2023/08/26 05:41:17;;;;;;;8.63;3.83;;;;;;;12.30;100.00;100995.22;4884131;29;20063;-61
2023/08/26 05:43:43;;;;;;;7.72;3.95;;;;;;;12.42;100.00;100997.63;4913407;29;20036;-61
2023/08/26 05:46:08;;;;;;;5.10;3.60;;;;;;;12.55;100.00;101000.91;4901875;29;20027;-60
2023/08/26 05:51:27;;;;;;;8.60;3.85;;;;;;;12.76;100.00;100989.16;4915368;29;20044;-61
2023/08/26 05:53:53;;;;;;;5.57;3.10;;;;;;;12.78;100.00;100989.97;4887536;29;20063;-61
2023/08/26 05:56:18;;;;;;;8.80;3.95;;;;;;;12.94;100.00;100981.81;4882734;29;20051;-61
2023/08/26 05:58:44;;;;;;;8.73;3.67;;;;;;;13.02;100.00;100982.53;4892878;29;20385;-61
2023/08/26 06:01:09;;;;;;;7.28;3.35;;;;;;;13.08;100.00;100978.91;4889382;29;20051;-61
2023/08/26 06:03:35;;;;;;;8.15;3.55;;;;;;;13.23;100.00;100978.59;4884534;29;20138;-61
2023/08/26 06:06:08;;;;;;;6.07;3.50;;;;;;;13.37;100.00;100980.97;4883703;29;20115;-60
2023/08/26 06:08:33;;;;;;;7.00;3.55;;;;;;;13.65;100.00;100978.59;4900663;29;20116;-60
2023/08/26 06:10:58;;;;;;;6.63;3.20;;;;;;;13.84;98.90;100981.69;4884986;29;20053;-60
2023/08/26 06:13:24;;;;;;;6.70;3.33;;;;;;;14.04;98.00;100973.31;4887278;29;20701;-61
2023/08/26 06:15:56;;;;;;;7.85;3.65;;;;;;;14.42;97.12;100985.56;4904717;29;20467;-61
2023/08/26 06:18:23;;;;;;;8.77;3.65;;;;;;;14.73;96.97;100983.91;4916966;29;20444;-61
2023/08/26 06:20:52;;;;;;;8.45;3.63;;;;;;;15.12;96.31;100980.19;4898519;29;20035;-62
2023/08/26 06:23:18;;;;;;;8.20;3.30;;;;;;;15.28;92.96;100979.78;4924728;29;20038;-62
2023/08/26 06:25:53;;;;;;;9.32;3.42;;;;;;;15.66;91.05;100975.09;4915479;29;20122;-62
2023/08/26 06:28:19;;;;;;;9.40;3.72;;;;;;;15.74;88.47;100970.44;4904518;29;20032;-62
2023/08/26 06:31:00;;;;;;;6.85;3.47;;;;;;;16.10;88.11;100981.69;4915748;29;20023;-62
2023/08/26 06:33:26;;;;;;;7.40;3.35;;;;;;;16.24;84.96;100989.13;4901701;29;20070;-62
2023/08/26 06:35:51;;;;;;;8.35;3.63;;;;;;;16.82;86.26;100973.97;4900728;29;20067;-62
2023/08/26 06:38:17;;;;;;;6.05;2.80;;;;;;;16.61;82.71;100982.59;4887954;29;20044;-62
2023/08/26 06:40:42;;;;;;;8.00;2.90;;;;;;;16.36;80.83;100987.00;4898964;29;20369;-61
2023/08/26 06:43:08;;;;;;;7.15;3.08;;;;;;;16.69;83.31;100984.13;4898728;29;20494;-61
2023/08/26 06:45:34;;;;;;;6.97;2.78;;;;;;;16.95;81.78;100986.75;4890249;29;20060;-60
2023/08/26 06:48:00;;;;;;;7.72;3.05;;;;;;;17.37;82.07;100982.56;4917500;29;20044;-61
2023/08/26 06:50:25;;;;;;;4.68;2.70;;;;;;;18.21;82.26;100976.66;4910272;29;20091;-61
2023/08/26 06:52:51;;;;;;;7.30;2.85;;;;;;;17.51;76.97;100987.31;4906910;29;20027;-60
2023/08/26 06:55:18;;;;;;;7.07;2.47;;;;;;;17.41;78.70;100980.66;4921472;29;20384;-61
2023/08/26 06:57:45;;;;;;;6.53;2.85;;;;;;;17.38;77.27;100980.78;4922108;29;20114;-61
2023/08/26 07:00:12;;;;;;;4.50;2.40;;;;;;;17.08;76.50;100978.34;4901034;29;20043;-61
2023/08/26 07:02:38;;;;;;;6.15;2.28;;;;;;;17.15;77.87;100979.84;4922766;29;20023;-61
2023/08/26 07:05:04;;;;;;;5.28;2.42;;;;;;;16.93;78.37;100975.34;4899130;29;20035;-61
2023/08/26 07:07:29;;;;;;;5.63;2.63;;;;;;;16.88;78.32;100982.59;4918317;29;20477;-61
2023/08/26 07:09:55;;;;;;;6.57;2.22;;;;;;;16.91;80.54;100973.66;4887112;29;20068;-61
2023/08/26 07:12:20;;;;;;;5.75;2.75;;;;;;;16.89;80.25;100979.00;4908247;29;20059;-61
2023/08/26 07:14:45;;;;;;;9.23;2.60;;;;;;;16.99;79.48;100979.53;4885649;29;20036;-61
2023/08/26 07:17:12;;;;;;;4.20;1.95;;;;;;;16.94;78.85;100984.16;4908628;29;20040;-61
2023/08/26 07:19:38;;;;;;;5.53;2.58;;;;;;;16.66;78.26;100989.53;4918525;29;20509;-61
2023/08/26 07:22:03;;;;;;;4.40;2.00;;;;;;;16.79;81.05;100990.81;4908007;29;20059;-62
2023/08/26 07:24:29;;;;;;;6.47;2.72;;;;;;;16.70;81.29;100994.66;4889499;29;20087;-62
2023/08/26 07:26:54;;;;;;;7.50;2.70;;;;;;;16.54;81.29;100985.53;4883200;29;20480;-62
2023/08/26 07:29:20;;;;;;;6.25;2.53;;;;;;;16.30;80.83;100988.06;4885319;29;20043;-61
2023/08/26 07:31:59;;;;;;;5.20;2.28;;;;;;;16.31;82.24;100994.25;4885704;29;20615;-61
2023/08/26 07:34:36;;;;;;;6.45;2.80;;;;;;;16.54;82.97;100991.66;4913588;29;20428;-61
2023/08/26 07:37:03;;;;;;;5.30;2.40;;;;;;;16.47;82.23;100990.16;4917257;29;20171;-61
2023/08/26 07:39:34;;;;;;;6.90;2.63;;;;;;;16.47;81.16;100994.59;4876232;29;20036;-62
2023/08/26 07:41:59;;;;;;;5.20;2.30;;;;;;;16.95;82.22;100988.50;4924462;29;20047;-61
2023/08/26 07:44:25;;;;;;;4.78;1.98;;;;;;;16.77;80.94;100995.31;4910345;29;20028;-61
2023/08/26 07:46:51;;;;;;;7.47;2.72;;;;;;;16.81;80.87;100994.28;4895658;29;20437;-62
2023/08/26 07:49:17;;;;;;;6.88;2.10;;;;;;;16.90;80.09;100990.47;4876425;29;20484;-62
2023/08/26 07:51:42;;;;;;;5.72;2.13;;;;;;;17.18;82.52;100981.50;4909315;29;20056;-61
2023/08/26 07:54:07;;;;;;;5.40;2.28;;;;;;;17.21;81.77;100995.53;4894244;29;20070;-61
2023/08/26 07:56:34;;;;;;;6.10;2.17;;;;;;;17.14;80.27;101002.81;4897524;29;20036;-60
2023/08/26 07:58:59;;;;;;;5.30;2.15;;;;;;;16.99;79.85;100994.56;4885329;29;20474;-61
2023/08/26 08:01:25;;;;;;;7.93;2.53;;;;;;;16.84;80.14;101002.09;4909432;29;20108;-62
2023/08/26 08:03:50;;;;;;;7.38;2.22;;;;;;;17.16;83.16;100999.25;4880826;29;20412;-62
2023/08/26 08:06:15;;;;;;;7.07;2.30;;;;;;;17.20;80.78;101007.03;4876759;29;20075;-62
2023/08/26 08:08:41;;;;;;;7.07;2.10;;;;;;;17.16;80.24;101000.09;4914809;29;20032;-62
2023/08/26 08:11:06;;;;;;;4.95;2.10;;;;;;;17.27;79.85;101008.53;4890381;29;20039;-62
2023/08/26 08:13:32;;;;;;;5.13;1.95;;;;;;;17.58;80.81;100994.09;4891634;29;20447;-62
2023/08/26 08:15:57;;;;;;;5.78;1.77;;;;;;;17.93;83.92;100997.22;4893182;29;20095;-63
2023/08/26 08:18:23;;;;;;;4.10;1.73;;;;;;;17.58;78.00;100991.47;4884375;29;20030;-62
2023/08/26 08:20:48;;;;;;;5.32;2.33;;;;;;;17.75;79.97;100993.44;4881100;29;20508;-62
2023/08/26 08:23:13;;;;;;;4.90;1.70;;;;;;;17.66;77.54;100994.69;4896407;29;20032;-61
2023/08/26 08:25:39;;;;;;;8.20;2.10;;;;;;;17.78;78.54;100989.81;4886396;29;20067;-61
2023/08/26 08:28:05;;;;;;;4.32;1.83;;;;;;;17.81;79.82;100987.03;4899343;29;20047;-61
2023/08/26 08:30:30;;;;;;;6.25;2.17;;;;;;;18.02;79.22;100990.66;4904186;29;20035;-61
2023/08/26 08:32:56;;;;;;;8.02;2.13;;;;;;;17.94;78.54;100988.34;4909156;29;20112;-61
2023/08/26 08:35:21;;;;;;;6.28;2.38;;;;;;;18.08;79.53;100990.41;4917766;29;20032;-63
2023/08/26 08:37:47;;;;;;;5.50;1.80;;;;;;;18.14;78.24;100989.28;4906790;29;20506;-62
2023/08/26 08:40:13;;;;;;;3.72;1.50;;;;;;;18.15;77.88;100980.44;4894768;29;20027;-61
2023/08/26 08:42:41;;;;;;;4.82;1.75;;;;;;;18.37;78.05;100991.00;4897493;29;20043;-61
2023/08/26 08:45:08;;;;;;;5.65;1.60;;;;;;;18.06;75.09;100986.09;4925603;29;20046;-61
2023/08/26 08:47:34;;;;;;;4.10;1.65;;;;;;;17.97;75.69;100988.22;4895453;29;20086;-60
2023/08/26 08:50:00;;;;;;;3.88;1.40;;;;;;;18.00;77.20;100995.16;4909353;29;20087;-61
2023/08/26 08:52:28;;;;;;;7.38;1.67;;;;;;;18.13;77.67;100985.78;4917053;29;20368;-61
2023/08/26 08:54:53;;;;;;;3.20;1.40;;;;;;;18.14;75.84;100994.59;4923466;29;20036;-61
2023/08/26 08:57:26;;;;;;;4.00;1.55;;;;;;;18.22;74.98;100992.50;4901919;29;20382;-76
2023/08/26 08:59:52;;;;;;;6.00;1.65;;;;;;;18.45;76.85;101001.31;4917881;29;20599;-76
2023/08/26 09:02:20;;;;;;;8.32;1.80;;;;;;;18.57;76.14;101006.06;4893557;29;20060;-76
2023/08/26 09:04:45;;;;;;;3.55;1.40;;;;;;;18.35;74.62;101006.97;4919356;29;20476;-61
2023/08/26 09:07:12;;;;;;;4.13;1.45;;;;;;;18.29;73.88;101009.03;4917538;29;20031;-61
2023/08/26 09:09:38;;;;;;;3.67;1.20;;;;;;;18.24;73.03;100995.94;4930548;29;20039;-61
2023/08/26 09:12:07;;;;;;;4.28;1.30;;;;;;;18.23;73.20;101010.16;4919937;29;20031;-61
2023/08/26 09:14:33;;;;;;;5.35;1.55;;;;;;;18.41;76.11;101002.34;4914609;29;20036;-61
2023/08/26 09:17:13;;;;;;;5.47;1.40;;;;;;;18.52;75.36;101000.97;4926770;29;20042;-61
2023/08/26 09:19:52;;;;;;;3.10;1.30;;;;;;;18.64;74.97;101007.53;4901797;29;20044;-60
2023/08/26 09:22:19;;;;;;;3.50;1.27;;;;;;;18.67;72.96;101003.88;4915516;29;20237;-61
2023/08/26 09:24:45;;;;;;;4.20;1.20;;;;;;;18.84;72.32;101011.13;4907467;29;20493;-61
2023/08/26 09:27:17;;;;;;;3.20;1.20;;;;;;;19.04;72.82;101010.28;4882967;29;20047;-61
2023/08/26 09:29:43;;;;;;;5.07;1.25;;;;;;;19.16;72.67;101016.81;4923712;29;20031;-61
2023/08/26 09:32:09;;;;;;;3.53;1.80;;;;;;;19.13;73.96;101011.66;4896514;29;20405;-61
2023/08/26 09:34:34;;;;;;;3.40;1.13;;;;;;;19.24;72.71;101021.78;4891610;29;20027;-61
2023/08/26 09:36:59;;;;;;;4.35;1.30;;;;;;;19.24;71.59;101016.47;4896056;29;20043;-61
2023/08/26 09:39:26;;;;;;;3.72;1.45;;;;;;;19.17;71.23;101019.41;4907766;29;20027;-60
2023/08/26 09:41:55;;;;;;;4.07;1.40;;;;;;;19.22;70.64;101019.19;4896145;29;20399;-61
2023/08/26 09:44:23;;;;;;;3.22;1.17;;;;;;;19.22;69.76;101016.53;4904356;29;20046;-61
2023/08/26 09:46:49;;;;;;;3.97;1.60;;;;;;;19.28;69.18;101020.72;4916630;29;20126;-61
2023/08/26 09:49:17;;;;;;;4.80;1.30;;;;;;;19.09;68.79;101031.31;4915516;29;20186;-61
2023/08/26 09:51:51;;;;;;;2.13;1.17;;;;;;;18.94;69.00;101028.41;4926049;29;20031;-61
2023/08/26 09:54:23;;;;;;;3.13;1.00;;;;;;;18.78;68.57;101022.88;4907020;29;20139;-61
2023/08/26 09:56:49;;;;;;;3.90;1.20;;;;;;;18.74;69.33;101028.38;4945203;29;20391;-61
2023/08/26 09:59:16;;;;;;;5.07;1.17;;;;;;;18.96;70.28;101028.34;4896566;29;20119;-61
2023/08/26 10:01:42;;;;;;;3.00;1.10;;;;;;;19.01;70.10;101024.56;4900878;29;20468;-61
2023/08/26 10:04:09;;;;;;;5.70;1.30;;;;;;;18.95;70.07;101029.25;4908604;29;20046;-61
2023/08/26 10:06:53;;;;;;;3.70;1.50;;;;;;;18.97;70.14;101038.03;4920523;29;20043;-61
2023/08/26 10:09:28;;;;;;;1.77;1.08;;;;;;;19.16;70.07;101030.09;4922960;29;20433;-61
2023/08/26 10:11:55;;;;;;;2.95;1.20;;;;;;;19.24;69.36;101027.97;4918964;29;20035;-61
2023/08/26 10:14:24;;;;;;;2.05;0.98;;;;;;;19.06;67.34;101039.44;4925327;29;20023;-61
2023/08/26 10:16:53;;;;;;;2.83;1.02;;;;;;;19.33;67.98;101024.91;4923800;29;20023;-61
2023/08/26 10:19:21;;;;;;;3.33;1.05;;;;;;;19.47;68.28;101026.06;4919064;29;20058;-61
2023/08/26 10:21:46;;;;;;;2.67;1.00;;;;;;;19.41;65.85;101027.22;4887194;29;20040;-61
2023/08/26 10:24:13;;;;;;;4.78;1.27;;;;;;;19.44;65.93;101023.53;4904054;29;20396;-61
2023/08/26 10:26:40;;;;;;;4.35;1.17;;;;;;;19.41;65.32;101034.31;4902391;29;20560;-60
2023/08/26 10:29:06;;;;;;;3.85;1.15;;;;;;;19.40;65.83;101030.81;4886286;29;20055;-60
2023/08/26 10:31:34;;;;;;;3.30;1.38;;;;;;;19.92;69.23;101032.00;4910619;29;20059;-61
2023/08/26 10:34:11;;;;;;;5.85;1.23;;;;;;;20.02;67.26;101030.59;4919468;29;20058;-62
2023/08/26 10:36:39;;;;;;;4.03;1.27;;;;;;;20.24;66.99;101028.63;4910009;29;20032;-61
2023/08/26 10:39:16;;;;;;;4.20;1.00;;;;;;;20.13;65.27;101030.06;4916578;29;20039;-61
2023/08/26 10:42:12;;;;;;;4.22;1.45;;;;;;;20.19;66.75;101035.09;4921156;29;20474;-61
2023/08/26 10:44:40;;;;;;;3.00;1.05;;;;;;;20.21;65.44;101033.22;4919992;29;20027;-61
2023/08/26 10:47:05;;;;;;;2.33;0.90;;;;;;;20.35;65.94;101029.88;4928849;29;20042;-61
2023/08/26 10:49:31;;;;;;;3.28;1.27;;;;;;;20.42;65.82;101025.97;4921441;29;20379;-61
2023/08/26 10:52:16;;;;;;;2.38;1.00;;;;;;;20.37;66.28;101031.53;4899967;29;20028;-61
2023/08/26 10:54:46;;;;;;;3.47;1.00;;;;;;;20.31;64.48;101021.19;4960206;23;20072;-58
2023/08/26 10:57:12;;;;;;;2.63;1.08;;;;;;;20.40;65.22;101020.75;5011354;23;20494;-58
2023/08/26 11:02:08;;;;;;;4.55;1.17;;;;;;;20.14;63.45;101010.50;5156508;23;20407;-60
2023/08/26 11:04:46;;;;;;;2.72;1.10;;;;;;;20.39;65.85;101015.50;4924294;28;20120;-59
2023/08/26 11:07:18;;;;;;;4.68;1.38;;;;;;;20.38;65.16;101017.28;4920396;29;20184;-58
2023/08/26 11:09:45;;;;;;;3.20;1.20;;;;;;;20.27;65.01;101011.66;4940400;28;20454;-59
2023/08/26 11:12:29;;;;;;;2.47;1.10;;;;;;;20.54;67.08;101019.16;4989867;23;20055;-58
2023/08/26 11:15:05;;;;;;;2.78;1.20;;;;;;;20.66;65.73;101007.91;4935915;29;20498;-59
2023/08/26 11:17:30;;;;;;;2.92;1.20;;;;;;;20.81;66.36;101000.94;4974132;23;20411;-62
2023/08/26 11:19:56;;;;;;;3.78;1.23;;;;;;;20.55;63.34;101003.13;4906825;29;20088;-62
2023/08/26 11:22:29;;;;;;;2.70;0.95;;;;;;;20.42;63.70;101000.22;4919443;29;20019;-62
2023/08/26 11:24:55;;;;;;;2.22;0.90;;;;;;;20.07;61.30;100994.00;4920015;29;20047;-73
2023/08/26 11:27:21;;;;;;;2.90;1.30;;;;;;;20.00;62.21;100993.44;4966060;23;20055;-81